Terminal Aerodrome Forecast
Issued by NWS Cleveland, OH

Home | Current Version | Previous Version | Graphics & Text | Print | Product List | Glossary On
Versions: 1 2 3 4 5 6 7 8 9 10 11 12 13 14 15
000
FTUS41 KCLE 271134
TAFERI
TAF
KERI 271134Z 2712/2812 20010G20KT P6SM FEW015 BKN080
     FM271400 22010G20KT P6SM SCT015
     FM271600 23015G25KT P6SM BKN040
     FM271900 22015G25KT P6SM BKN050
      TEMPO 2723/2802 5SM -TSRA BR OVC035CB
     FM280300 22010KT 6SM BR VCSH OVC050
     FM280700 28005KT 3SM BR SCT030=

USA.gov is the U.S. government's official web portal to all federal, state and local government web resources and services.